createdAt,value
2022-09-06T00:01:17.230Z,17.56
2022-09-06T00:04:20.234Z,17.52
2022-09-06T00:07:22.745Z,17.49
2022-09-06T00:10:26.483Z,17.64
2022-09-06T00:13:29.300Z,17.68
2022-09-06T00:16:32.117Z,17.78
2022-09-06T00:19:34.749Z,17.86
2022-09-06T00:22:38.604Z,17.80
2022-09-06T00:25:41.830Z,17.77
2022-09-06T00:28:45.100Z,17.80
2022-09-06T00:31:47.622Z,17.75
2022-09-06T00:34:50.347Z,17.79
2022-09-06T00:37:58.025Z,17.75
2022-09-06T00:41:01.230Z,17.68
2022-09-06T00:44:04.166Z,17.75
2022-09-06T00:47:08.495Z,17.79
2022-09-06T00:50:13.842Z,17.71
2022-09-06T00:53:17.535Z,17.74
2022-09-06T00:56:20.139Z,17.64
2022-09-06T00:59:25.680Z,17.71
2022-09-06T01:02:28.333Z,17.61
2022-09-06T01:05:43.350Z,17.63
2022-09-06T01:09:18.426Z,17.58
2022-09-06T01:12:55.666Z,17.52
2022-09-06T01:16:01.073Z,17.54
2022-09-06T01:19:31.502Z,17.46
2022-09-06T01:22:40.187Z,17.41
2022-09-06T01:26:01.075Z,17.42
2022-09-06T01:29:11.166Z,17.37
2022-09-06T01:32:23.958Z,17.40
2022-09-06T01:35:26.434Z,17.41
2022-09-06T01:38:29.514Z,17.41
2022-09-06T01:41:32.842Z,17.41
2022-09-06T01:44:37.746Z,17.39
2022-09-06T01:47:54.536Z,17.32
2022-09-06T01:51:32.336Z,17.32
2022-09-06T01:55:00.254Z,17.31
2022-09-06T01:58:38.929Z,17.33
2022-09-06T02:01:44.600Z,17.30
2022-09-06T02:05:01.416Z,17.32
2022-09-06T02:08:16.236Z,17.23
2022-09-06T02:11:19.186Z,17.14
2022-09-06T02:14:36.158Z,17.09
2022-09-06T02:17:43.206Z,17.00
2022-09-06T02:20:51.028Z,17.12
2022-09-06T02:23:57.109Z,17.15
2022-09-06T02:26:59.657Z,17.10
2022-09-06T02:30:03.167Z,17.05
2022-09-06T02:33:16.359Z,16.87
2022-09-06T02:36:19.500Z,16.75
2022-09-06T02:39:22.102Z,16.64
2022-09-06T02:42:25.198Z,16.66
2022-09-06T02:45:27.739Z,16.52
2022-09-06T02:48:30.514Z,16.42
2022-09-06T02:51:38.356Z,16.50
2022-09-06T02:54:41.126Z,16.64
2022-09-06T02:57:43.866Z,16.74
2022-09-06T03:00:46.693Z,16.61
2022-09-06T03:03:49.314Z,16.44
2022-09-06T03:06:52.074Z,16.38
2022-09-06T03:09:56.937Z,16.42
2022-09-06T03:13:00.044Z,16.27
2022-09-06T03:16:02.903Z,16.17
2022-09-06T03:19:05.667Z,16.07
2022-09-06T03:22:08.307Z,15.97
2022-09-06T03:25:11.388Z,15.89
2022-09-06T03:28:13.968Z,15.87
2022-09-06T03:31:16.904Z,15.86
2022-09-06T03:34:19.384Z,15.84
2022-09-06T03:37:22.132Z,15.86
2022-09-06T03:40:25.029Z,15.96
2022-09-06T03:43:28.254Z,16.19
2022-09-06T03:46:30.949Z,16.22
2022-09-06T03:49:33.641Z,16.20
2022-09-06T03:52:36.220Z,16.25
2022-09-06T03:55:39.540Z,16.27
2022-09-06T03:58:42.073Z,16.20
2022-09-06T04:01:44.917Z,16.20
2022-09-06T04:04:47.769Z,16.18
2022-09-06T04:07:50.269Z,16.16
2022-09-06T04:10:54.979Z,16.17
2022-09-06T04:13:57.489Z,16.16
2022-09-06T04:17:00.409Z,16.10
2022-09-06T04:20:03.825Z,16.02
2022-09-06T04:23:07.441Z,16.11
2022-09-06T04:26:10.041Z,16.13
2022-09-06T04:29:13.011Z,16.12
2022-09-06T04:32:15.511Z,16.14
2022-09-06T04:35:18.358Z,16.21
2022-09-06T04:38:21.157Z,16.25
2022-09-06T04:41:23.931Z,16.21
2022-09-06T04:44:26.481Z,16.20
2022-09-06T04:47:29.739Z,16.14
2022-09-06T04:50:32.632Z,16.13
2022-09-06T04:53:40.720Z,16.09
2022-09-06T04:56:43.234Z,16.17
2022-09-06T04:59:46.065Z,16.18
2022-09-06T05:02:48.580Z,16.19
2022-09-06T05:05:51.465Z,16.13
2022-09-06T05:08:54.310Z,16.11
2022-09-06T05:11:57.828Z,16.14
2022-09-06T05:15:00.492Z,16.27
2022-09-06T05:18:04.974Z,16.31
2022-09-06T05:21:07.838Z,16.33
2022-09-06T05:24:10.837Z,16.36
2022-09-06T05:27:14.275Z,16.40
2022-09-06T05:30:18.179Z,16.45
2022-09-06T05:33:22.692Z,16.48
2022-09-06T05:36:26.669Z,16.52
2022-09-06T05:39:29.175Z,16.67
2022-09-06T05:42:32.032Z,16.86
2022-09-06T05:45:34.663Z,16.96
2022-09-06T05:48:37.728Z,17.05
2022-09-06T05:51:40.845Z,17.16
2022-09-06T05:54:43.731Z,17.18
2022-09-06T05:57:46.544Z,17.23
2022-09-06T06:00:49.169Z,17.49
2022-09-06T06:03:57.856Z,17.68
2022-09-06T06:07:00.359Z,17.80
2022-09-06T06:10:04.397Z,17.80
2022-09-06T06:13:07.543Z,17.73
2022-09-06T06:16:16.448Z,17.71
2022-09-06T06:19:19.030Z,17.66
2022-09-06T06:22:21.918Z,17.77
2022-09-06T06:25:26.277Z,17.97
2022-09-06T06:28:29.209Z,18.18
2022-09-06T06:31:33.416Z,18.32
2022-09-06T06:34:36.267Z,18.55
2022-09-06T06:37:38.683Z,19.13
2022-09-06T06:40:45.833Z,19.78
2022-09-06T06:43:48.361Z,20.56
2022-09-06T06:46:52.118Z,21.28
2022-09-06T06:49:54.907Z,21.75
2022-09-06T06:52:57.697Z,21.74
2022-09-06T06:56:00.296Z,21.57
2022-09-06T06:59:05.557Z,22.76
2022-09-06T07:02:08.392Z,22.16
2022-09-06T07:08:34.557Z,22.09
2022-09-06T07:11:37.240Z,23.11
2022-09-06T07:14:40.218Z,22.93
2022-09-06T07:17:44.101Z,24.47
2022-09-06T07:24:10.267Z,23.77
2022-09-06T07:30:37.451Z,24.43
2022-09-06T07:33:40.179Z,24.91
2022-09-06T07:36:42.942Z,25.77
2022-09-06T07:39:45.587Z,26.14
2022-09-06T07:42:48.602Z,25.84
2022-09-06T07:46:14.077Z,26.02
2022-09-06T07:49:16.858Z,25.28
2022-09-06T07:55:44.838Z,27.25
2022-09-06T07:58:48.310Z,27.49
2022-09-06T08:01:53.292Z,28.09
2022-09-06T08:04:56.849Z,29.29
2022-09-06T08:11:24.731Z,28.08
2022-09-06T08:14:29.190Z,26.59
2022-09-06T08:17:35.953Z,26.16
2022-09-06T08:20:40.856Z,26.00
2022-09-06T08:23:52.981Z,26.53
2022-09-06T08:26:55.562Z,26.42
2022-09-06T08:29:58.491Z,26.08
2022-09-06T08:33:01.555Z,26.19
2022-09-06T08:36:05.864Z,25.67
2022-09-06T08:39:10.360Z,25.49
2022-09-06T08:42:13.467Z,25.79
2022-09-06T08:45:19.683Z,26.48
2022-09-06T08:48:32.159Z,26.32
2022-09-06T08:51:50.609Z,26.30
2022-09-06T08:55:03.057Z,25.92
2022-09-06T08:58:58.034Z,26.16
2022-09-06T09:02:14.489Z,26.83
2022-09-06T09:05:37.283Z,26.50
2022-09-06T09:09:12.968Z,26.06
2022-09-06T09:12:22.575Z,25.50
2022-09-06T09:15:25.609Z,25.90
2022-09-06T09:18:33.641Z,26.33
2022-09-06T09:21:38.848Z,26.21
2022-09-06T09:24:44.127Z,26.80
2022-09-06T09:27:57.301Z,26.57
2022-09-06T09:31:00.712Z,26.43
2022-09-06T09:34:05.511Z,26.51
2022-09-06T09:40:48.945Z,25.68
2022-09-06T09:44:03.713Z,25.74
2022-09-06T09:47:28.710Z,25.10
2022-09-06T09:50:34.839Z,25.03
2022-09-06T09:53:50.563Z,25.80
2022-09-06T09:56:54.310Z,26.14
2022-09-06T10:00:06.606Z,26.34
2022-09-06T10:03:19.133Z,26.29
2022-09-06T10:10:02.465Z,26.35
2022-09-06T10:13:23.389Z,27.11
2022-09-06T10:16:43.675Z,27.00
2022-09-06T10:19:47.401Z,26.96
2022-09-06T10:23:11.595Z,27.17
2022-09-06T10:26:43.618Z,27.97
2022-09-06T10:30:04.233Z,27.87
2022-09-06T10:33:27.834Z,28.28
2022-09-06T10:37:01.274Z,27.62
2022-09-06T10:40:09.880Z,27.69
2022-09-06T10:43:18.991Z,27.96
2022-09-06T10:46:25.897Z,27.49
2022-09-06T10:49:29.325Z,28.43
2022-09-06T10:52:38.612Z,31.75
2022-09-06T10:55:47.815Z,33.21
2022-09-06T11:02:48.945Z,37.75
2022-09-06T11:05:59.476Z,39.21
2022-09-06T11:09:41.639Z,42.63
2022-09-06T11:13:08.514Z,40.89
2022-09-06T11:16:24.767Z,40.22
2022-09-06T11:19:33.762Z,41.20
2022-09-06T11:22:50.248Z,39.71
2022-09-06T11:26:29.100Z,37.09
2022-09-06T11:29:34.824Z,40.28
2022-09-06T11:32:51.618Z,40.63
2022-09-06T11:36:14.689Z,40.44
2022-09-06T11:43:03.148Z,41.88
2022-09-06T11:46:05.842Z,42.94
2022-09-06T11:49:29.263Z,38.32
2022-09-06T11:52:59.202Z,34.03
2022-09-06T11:56:02.090Z,33.49
2022-09-06T11:59:27.234Z,36.16
2022-09-06T12:02:41.072Z,41.41
2022-09-06T12:06:15.315Z,39.43
2022-09-06T12:09:35.567Z,34.90
2022-09-06T12:12:46.229Z,37.79
2022-09-06T12:15:54.562Z,36.41
2022-09-06T12:18:59.086Z,35.60
2022-09-06T12:22:02.836Z,37.56
2022-09-06T12:25:34.189Z,38.13
2022-09-06T12:28:46.959Z,37.73
2022-09-06T12:32:01.644Z,39.16
2022-09-06T12:38:31.767Z,38.74
2022-09-06T12:41:43.298Z,40.21
2022-09-06T12:44:49.861Z,42.65
2022-09-06T12:48:05.030Z,42.70
2022-09-06T12:51:16.200Z,40.75
2022-09-06T12:54:26.326Z,41.74
2022-09-06T12:57:29.718Z,42.86
2022-09-06T13:00:54.633Z,37.75
2022-09-06T13:04:22.352Z,39.64
2022-09-06T13:07:27.142Z,39.19
2022-09-06T13:10:31.245Z,40.96
2022-09-06T13:13:33.868Z,40.53
2022-09-06T13:16:42.614Z,41.51
2022-09-06T13:19:45.750Z,44.31
2022-09-06T13:22:51.035Z,43.83
2022-09-06T13:25:55.696Z,44.69
2022-09-06T13:29:10.588Z,41.37
2022-09-06T13:32:14.631Z,36.22
2022-09-06T13:35:26.473Z,34.50
2022-09-06T13:38:39.844Z,32.19
2022-09-06T13:41:42.904Z,30.51
2022-09-06T13:44:45.382Z,30.15
2022-09-06T13:47:48.219Z,29.68
2022-09-06T13:50:50.693Z,29.22
2022-09-06T13:54:06.314Z,28.80
2022-09-06T13:57:09.939Z,28.26
2022-09-06T14:00:13.872Z,27.97
2022-09-06T14:03:25.623Z,27.48
2022-09-06T14:06:28.448Z,27.31
2022-09-06T14:09:31.424Z,27.23
2022-09-06T14:12:37.111Z,27.34
2022-09-06T14:15:41.174Z,27.10
2022-09-06T14:18:45.114Z,26.95
2022-09-06T14:21:48.166Z,26.91
2022-09-06T14:24:50.945Z,26.86
2022-09-06T14:27:53.823Z,26.80
2022-09-06T14:30:56.590Z,26.86
2022-09-06T14:34:03.476Z,26.76
2022-09-06T14:37:09.254Z,26.86
2022-09-06T14:40:16.859Z,26.73
2022-09-06T14:43:19.766Z,26.62
2022-09-06T14:46:24.328Z,26.41
2022-09-06T14:49:27.218Z,26.20
2022-09-06T14:52:30.076Z,26.18
2022-09-06T14:55:32.621Z,26.10
2022-09-06T14:58:37.530Z,26.23
2022-09-06T15:01:41.179Z,26.03
2022-09-06T15:04:44.015Z,25.87
2022-09-06T15:07:46.972Z,25.77
2022-09-06T15:10:54.920Z,25.69
2022-09-06T15:13:58.757Z,25.63
2022-09-06T15:17:03.188Z,25.53
2022-09-06T15:20:06.270Z,25.53
2022-09-06T15:23:35.456Z,25.56
2022-09-06T15:26:33.569Z,25.59
2022-09-06T15:29:39.434Z,25.66
2022-09-06T15:32:42.938Z,25.74
2022-09-06T15:35:54.796Z,25.78
2022-09-06T15:39:01.097Z,25.76
2022-09-06T15:42:04.545Z,25.38
2022-09-06T15:45:09.370Z,25.46
2022-09-06T15:48:15.945Z,25.32
2022-09-06T15:51:20.624Z,25.20
2022-09-06T15:54:43.432Z,24.99
2022-09-06T15:57:46.824Z,24.92
2022-09-06T16:01:11.269Z,24.63
2022-09-06T16:04:14.166Z,24.55
2022-09-06T16:07:18.544Z,24.47
2022-09-06T16:10:23.622Z,24.43
2022-09-06T16:13:33.295Z,24.24
2022-09-06T16:16:36.494Z,24.03
2022-09-06T16:19:39.928Z,23.78
2022-09-06T16:22:42.885Z,23.47
2022-09-06T16:25:55.360Z,23.20
2022-09-06T16:28:58.809Z,22.85
2022-09-06T16:32:01.299Z,22.78
2022-09-06T16:35:05.867Z,22.62
2022-09-06T16:38:09.431Z,22.55
2022-09-06T16:41:19.303Z,22.39
2022-09-06T16:44:21.926Z,22.28
2022-09-06T16:47:24.921Z,22.15
2022-09-06T16:50:27.681Z,21.73
2022-09-06T16:53:30.564Z,21.63
2022-09-06T16:56:35.833Z,21.60
2022-09-06T16:59:39.300Z,21.61
2022-09-06T17:02:47.140Z,21.58
2022-09-06T17:05:52.133Z,21.54
2022-09-06T17:08:59.363Z,21.50
2022-09-06T17:12:05.041Z,21.53
2022-09-06T17:15:11.216Z,21.47
2022-09-06T17:18:15.252Z,21.34
2022-09-06T17:21:18.994Z,21.36
2022-09-06T17:24:23.537Z,21.32
2022-09-06T17:27:27.022Z,21.16
2022-09-06T17:30:39.780Z,20.63
2022-09-06T17:33:42.522Z,20.16
2022-09-06T17:36:45.410Z,20.10
2022-09-06T17:39:48.097Z,19.74
2022-09-06T17:42:52.181Z,19.65
2022-09-06T17:45:54.759Z,19.69
2022-09-06T17:48:58.281Z,19.88
2022-09-06T17:52:00.745Z,19.90
2022-09-06T17:55:04.805Z,20.10
2022-09-06T17:58:08.410Z,20.39
2022-09-06T18:01:14.022Z,20.35
2022-09-06T18:04:17.595Z,20.34
2022-09-06T18:07:20.198Z,20.30
2022-09-06T18:10:23.255Z,20.14
2022-09-06T18:13:25.770Z,20.03
2022-09-06T18:16:30.664Z,20.01
2022-09-06T18:19:33.803Z,19.90
2022-09-06T18:22:38.770Z,19.89
2022-09-06T18:25:41.367Z,19.97
2022-09-06T18:28:44.482Z,19.89
2022-09-06T18:31:47.643Z,19.86
2022-09-06T18:34:51.736Z,19.88
2022-09-06T18:37:54.195Z,19.88
2022-09-06T18:40:59.166Z,19.89
2022-09-06T18:44:03.633Z,19.89
2022-09-06T18:47:09.278Z,19.92
2022-09-06T18:50:12.452Z,20.00
2022-09-06T18:53:18.228Z,19.98
2022-09-06T18:56:20.939Z,20.01
2022-09-06T18:59:24.389Z,20.12
2022-09-06T19:02:28.513Z,20.15
2022-09-06T19:05:34.073Z,20.12
2022-09-06T19:08:37.173Z,19.96
2022-09-06T19:11:41.673Z,19.86
2022-09-06T19:14:44.257Z,19.85
2022-09-06T19:17:49.016Z,19.68
2022-09-06T19:21:02.732Z,19.55
2022-09-06T19:24:08.376Z,19.47
2022-09-06T19:27:12.152Z,19.42
2022-09-06T19:30:15.485Z,19.37
2022-09-06T19:33:18.335Z,19.31
2022-09-06T19:36:22.882Z,19.28
2022-09-06T19:39:32.362Z,19.20
2022-09-06T19:42:38.159Z,19.18
2022-09-06T19:45:41.453Z,19.15
2022-09-06T19:48:48.239Z,19.11
2022-09-06T19:51:51.321Z,19.07
2022-09-06T19:54:54.163Z,19.08
2022-09-06T19:57:57.763Z,19.06
2022-09-06T20:01:01.058Z,19.00
2022-09-06T20:04:07.046Z,18.93
2022-09-06T20:07:09.580Z,18.83
2022-09-06T20:10:13.426Z,18.73
2022-09-06T20:13:16.014Z,18.70
2022-09-06T20:16:20.969Z,18.58
2022-09-06T20:19:23.708Z,18.54
2022-09-06T20:22:26.730Z,18.48
2022-09-06T20:25:29.294Z,18.55
2022-09-06T20:28:33.180Z,18.65
2022-09-06T20:31:37.600Z,18.65
2022-09-06T20:34:41.426Z,18.73
2022-09-06T20:37:44.090Z,18.71
2022-09-06T20:40:47.026Z,18.74
2022-09-06T20:43:57.706Z,18.69
2022-09-06T20:47:01.038Z,18.64
2022-09-06T20:50:03.870Z,18.64
2022-09-06T20:53:06.951Z,18.65
2022-09-06T20:56:16.996Z,18.68
2022-09-06T20:59:19.803Z,18.77
2022-09-06T21:02:22.380Z,18.82
2022-09-06T21:05:25.236Z,18.86
2022-09-06T21:08:30.680Z,18.95
2022-09-06T21:11:37.357Z,19.04
2022-09-06T21:14:39.837Z,19.10
2022-09-06T21:17:42.635Z,19.13
2022-09-06T21:21:00.014Z,19.06
2022-09-06T21:24:04.904Z,19.02
2022-09-06T21:27:07.451Z,19.32
2022-09-06T21:30:11.123Z,19.05
2022-09-06T21:33:14.253Z,18.96
2022-09-06T21:36:19.620Z,18.93
2022-09-06T21:39:22.156Z,18.85
2022-09-06T21:42:24.938Z,18.73
2022-09-06T21:45:27.472Z,18.63
2022-09-06T21:48:30.870Z,18.53
2022-09-06T21:51:34.074Z,18.54
2022-09-06T21:54:36.875Z,18.44
2022-09-06T21:57:39.355Z,18.39
2022-09-06T22:00:42.937Z,18.36
2022-09-06T22:03:46.649Z,18.27
2022-09-06T22:06:49.249Z,18.23
2022-09-06T22:09:52.217Z,18.24
2022-09-06T22:12:55.463Z,18.18
2022-09-06T22:16:05.631Z,18.21
2022-09-06T22:19:11.882Z,18.14
2022-09-06T22:22:14.731Z,18.09
2022-09-06T22:25:17.299Z,18.10
2022-09-06T22:28:20.188Z,18.15
2022-09-06T22:31:24.240Z,18.10
2022-09-06T22:34:27.122Z,18.10
2022-09-06T22:37:29.661Z,18.09
2022-09-06T22:40:32.350Z,18.00
2022-09-06T22:43:35.211Z,17.98
2022-09-06T22:46:38.619Z,17.96
2022-09-06T22:49:41.193Z,17.94
2022-09-06T22:52:44.015Z,17.83
2022-09-06T22:55:48.027Z,17.78
2022-09-06T22:58:50.811Z,17.72
2022-09-06T23:01:53.397Z,17.59
2022-09-06T23:04:56.395Z,17.55
2022-09-06T23:08:01.655Z,17.72
2022-09-06T23:11:08.073Z,17.64
2022-09-06T23:14:10.840Z,17.54
2022-09-06T23:17:14.779Z,17.65
2022-09-06T23:20:17.974Z,17.60
2022-09-06T23:23:20.760Z,17.53
2022-09-06T23:26:27.560Z,17.52
2022-09-06T23:29:31.636Z,17.35
2022-09-06T23:32:34.194Z,17.22
2022-09-06T23:35:38.815Z,17.19
2022-09-06T23:38:44.634Z,17.18
2022-09-06T23:41:47.405Z,17.16
2022-09-06T23:44:54.376Z,17.13
2022-09-06T23:47:57.166Z,17.20
2022-09-06T23:51:00.039Z,17.24
2022-09-06T23:54:03.682Z,17.13
2022-09-06T23:57:06.366Z,17.06
